createdAt,value
2023-03-03T00:01:03.288Z,68.14
2023-03-03T00:03:32.789Z,68.44
2023-03-03T00:06:00.985Z,69.74
2023-03-03T00:08:28.909Z,69.51
2023-03-03T00:10:56.695Z,69.61
2023-03-03T00:13:26.353Z,69.10
2023-03-03T00:15:55.069Z,69.63
2023-03-03T00:18:29.992Z,69.90
2023-03-03T00:21:01.465Z,70.00
2023-03-03T00:23:37.292Z,70.20
2023-03-03T00:26:20.429Z,70.34
2023-03-03T00:28:50.911Z,71.01
2023-03-03T00:31:22.499Z,71.57
2023-03-03T00:33:54.656Z,71.08
2023-03-03T00:36:38.387Z,71.15
2023-03-03T00:39:24.833Z,71.11
2023-03-03T00:41:53.023Z,71.57
2023-03-03T00:44:42.882Z,72.24
2023-03-03T00:47:31.782Z,72.51
2023-03-03T00:50:28.334Z,72.05
2023-03-03T00:53:08.637Z,71.83
2023-03-03T00:55:37.235Z,72.51
2023-03-03T00:58:05.610Z,73.05
2023-03-03T01:00:38.394Z,72.76
2023-03-03T01:03:10.747Z,73.28
2023-03-03T01:05:38.710Z,73.67
2023-03-03T01:08:08.549Z,73.81
2023-03-03T01:10:40.209Z,73.68
2023-03-03T01:13:09.714Z,73.75
2023-03-03T01:15:38.686Z,73.70
2023-03-03T01:18:06.669Z,73.22
2023-03-03T01:20:35.292Z,73.48
2023-03-03T01:23:03.524Z,73.76
2023-03-03T01:25:33.652Z,73.69
2023-03-03T01:28:01.501Z,74.05
2023-03-03T01:30:29.676Z,74.10
2023-03-03T01:32:58.222Z,74.34
2023-03-03T01:35:26.295Z,74.20
2023-03-03T01:37:54.100Z,74.41
2023-03-03T01:40:24.742Z,74.75
2023-03-03T01:42:53.996Z,75.41
2023-03-03T01:45:24.246Z,75.23
2023-03-03T01:48:02.707Z,76.08
2023-03-03T01:50:47.624Z,76.37
2023-03-03T01:53:19.998Z,76.85
2023-03-03T01:55:51.298Z,77.36
2023-03-03T01:58:25.058Z,77.73
2023-03-03T02:00:58.842Z,78.11
2023-03-03T02:03:27.023Z,78.03
2023-03-03T02:05:58.963Z,77.87
2023-03-03T02:08:32.607Z,78.02
2023-03-03T02:11:00.830Z,77.91
2023-03-03T02:13:30.222Z,78.55
2023-03-03T02:15:59.130Z,78.53
2023-03-03T02:18:28.166Z,79.42
2023-03-03T02:21:03.443Z,79.63
2023-03-03T02:23:39.680Z,80.45
2023-03-03T02:26:11.954Z,80.79
2023-03-03T02:28:41.360Z,80.40
2023-03-03T02:31:14.265Z,80.46
2023-03-03T02:33:43.757Z,80.32
2023-03-03T02:36:14.582Z,80.58
2023-03-03T02:38:47.752Z,81.64
2023-03-03T02:41:26.903Z,81.76
2023-03-03T02:44:00.358Z,81.11
2023-03-03T02:46:32.803Z,81.70
2023-03-03T02:49:01.969Z,81.93
2023-03-03T02:51:30.401Z,82.31
2023-03-03T02:53:58.464Z,82.20
2023-03-03T02:56:30.394Z,82.05
2023-03-03T02:58:58.325Z,81.86
2023-03-03T03:01:26.377Z,82.41
2023-03-03T03:03:55.453Z,82.07
2023-03-03T03:06:24.470Z,81.88
2023-03-03T03:08:52.550Z,81.55
2023-03-03T03:11:20.290Z,82.63
2023-03-03T03:13:50.473Z,83.58
2023-03-03T03:16:18.369Z,83.66
2023-03-03T03:18:46.824Z,84.85
2023-03-03T03:21:15.805Z,84.35
2023-03-03T03:23:43.875Z,84.67
2023-03-03T03:26:13.464Z,85.61
2023-03-03T03:28:41.575Z,84.91
2023-03-03T03:31:11.239Z,85.62
2023-03-03T03:33:39.012Z,85.61
2023-03-03T03:36:08.815Z,86.06
2023-03-03T03:38:37.762Z,86.42
2023-03-03T03:41:08.694Z,86.00
2023-03-03T03:43:37.228Z,86.78
2023-03-03T03:46:05.633Z,86.37
2023-03-03T03:48:36.078Z,87.30
2023-03-03T03:51:06.946Z,87.44
2023-03-03T03:53:36.014Z,87.39
2023-03-03T03:56:03.878Z,88.11
2023-03-03T03:58:32.327Z,87.85
2023-03-03T04:01:06.112Z,88.14
2023-03-03T04:03:37.685Z,89.06
2023-03-03T04:06:09.727Z,89.72
2023-03-03T04:08:37.594Z,89.65
2023-03-03T04:11:05.726Z,89.92
2023-03-03T04:13:35.368Z,90.52
2023-03-03T04:16:07.333Z,90.95
2023-03-03T04:18:37.940Z,91.40
2023-03-03T04:21:06.149Z,91.23
2023-03-03T04:23:34.550Z,92.09
2023-03-03T04:26:03.449Z,92.91
2023-03-03T04:28:31.519Z,92.84
2023-03-03T04:31:00.621Z,93.14
2023-03-03T04:33:30.962Z,93.80
2023-03-03T04:36:00.896Z,94.12
2023-03-03T04:38:29.032Z,95.35
2023-03-03T04:40:57.800Z,95.74
2023-03-03T04:43:27.635Z,95.88
2023-03-03T04:45:56.617Z,95.53
2023-03-03T04:48:24.457Z,96.32
2023-03-03T04:50:52.867Z,96.54
2023-03-03T04:53:22.688Z,95.64
2023-03-03T04:55:51.576Z,96.19
2023-03-03T04:58:19.971Z,97.61
2023-03-03T05:00:49.421Z,98.17
2023-03-03T05:03:17.218Z,99.01
2023-03-03T05:05:44.988Z,99.60
2023-03-03T05:08:12.808Z,99.56
2023-03-03T05:10:42.457Z,99.80
2023-03-03T05:13:10.662Z,99.74
2023-03-03T05:15:38.643Z,100.00
2023-03-03T05:18:06.648Z,100.00
2023-03-03T05:20:34.299Z,100.00
2023-03-03T05:23:02.103Z,100.00
2023-03-03T05:25:29.940Z,100.00
2023-03-03T05:27:59.804Z,100.00
2023-03-03T05:30:27.572Z,100.00
2023-03-03T05:32:55.264Z,100.00
2023-03-03T05:35:23.335Z,100.00
2023-03-03T05:37:52.707Z,100.00
2023-03-03T05:40:20.515Z,100.00
2023-03-03T05:42:49.124Z,100.00
2023-03-03T05:45:20.352Z,100.00
2023-03-03T05:47:48.592Z,100.00
2023-03-03T05:50:17.440Z,100.00
2023-03-03T05:52:46.012Z,100.00
2023-03-03T05:55:13.884Z,100.00
2023-03-03T05:57:41.681Z,100.00
2023-03-03T06:00:10.924Z,100.00
2023-03-03T06:02:43.858Z,100.00
2023-03-03T06:05:12.322Z,100.00
2023-03-03T06:07:40.027Z,100.00
2023-03-03T06:10:08.499Z,100.00
2023-03-03T06:12:39.234Z,100.00
2023-03-03T06:15:08.328Z,100.00
2023-03-03T06:17:36.092Z,100.00
2023-03-03T06:20:06.191Z,100.00
2023-03-03T06:22:34.212Z,100.00
2023-03-03T06:25:01.936Z,100.00
2023-03-03T06:27:30.092Z,100.00
2023-03-03T06:29:57.817Z,100.00
2023-03-03T06:32:25.781Z,100.00
2023-03-03T06:34:54.001Z,100.00
2023-03-03T06:37:23.061Z,100.00
2023-03-03T06:39:53.721Z,100.00
2023-03-03T06:42:21.553Z,100.00
2023-03-03T06:44:50.307Z,100.00
2023-03-03T06:47:18.036Z,100.00
2023-03-03T06:49:46.215Z,100.00
2023-03-03T06:52:18.922Z,100.00
2023-03-03T06:54:49.318Z,100.00
2023-03-03T06:57:24.283Z,100.00
2023-03-03T06:59:55.627Z,100.00
2023-03-03T07:02:23.605Z,100.00
2023-03-03T07:04:51.625Z,100.00
2023-03-03T07:07:21.640Z,100.00
2023-03-03T07:09:53.166Z,100.00
2023-03-03T07:12:23.578Z,100.00
2023-03-03T07:14:55.928Z,100.00
2023-03-03T07:17:26.430Z,100.00
2023-03-03T07:19:55.057Z,100.00
2023-03-03T07:22:26.263Z,100.00
2023-03-03T07:25:00.722Z,100.00
2023-03-03T07:27:29.966Z,100.00
2023-03-03T07:30:20.728Z,100.00
2023-03-03T07:32:50.422Z,100.00
2023-03-03T07:35:31.127Z,100.00
2023-03-03T07:37:59.040Z,100.00
2023-03-03T07:40:37.145Z,100.00
2023-03-03T07:43:27.561Z,100.00
2023-03-03T07:46:01.379Z,100.00
2023-03-03T07:48:35.802Z,100.00
2023-03-03T07:51:07.161Z,100.00
2023-03-03T07:53:37.978Z,100.00
2023-03-03T07:56:23.658Z,100.00
2023-03-03T07:58:52.460Z,100.00
2023-03-03T08:01:42.669Z,100.00
2023-03-03T08:04:20.821Z,100.00
2023-03-03T08:06:52.526Z,100.00
2023-03-03T08:09:43.527Z,100.00
2023-03-03T08:12:49.439Z,98.83
2023-03-03T08:15:32.696Z,99.32
2023-03-03T08:18:02.827Z,97.74
2023-03-03T08:20:52.367Z,98.65
2023-03-03T08:23:21.175Z,99.10
2023-03-03T08:25:51.312Z,99.20
2023-03-03T08:28:21.278Z,98.72
2023-03-03T08:30:50.540Z,97.91
2023-03-03T08:33:19.427Z,98.05
2023-03-03T08:35:48.180Z,98.98
2023-03-03T08:38:18.901Z,99.16
2023-03-03T08:40:47.940Z,97.79
2023-03-03T08:43:17.335Z,96.93
2023-03-03T08:45:48.311Z,97.51
2023-03-03T08:48:16.475Z,96.74
2023-03-03T08:50:45.402Z,93.59
2023-03-03T08:53:14.751Z,94.55
2023-03-03T08:55:43.111Z,95.22
2023-03-03T08:58:10.752Z,93.32
2023-03-03T09:00:39.340Z,95.42
2023-03-03T09:03:09.185Z,95.57
2023-03-03T09:05:39.101Z,94.15
2023-03-03T09:08:08.077Z,94.90
2023-03-03T09:10:36.756Z,94.08
2023-03-03T09:13:13.338Z,92.32
2023-03-03T09:15:41.291Z,91.11
2023-03-03T09:18:17.724Z,90.38
2023-03-03T09:20:47.287Z,90.01
2023-03-03T09:23:29.537Z,92.22
2023-03-03T09:25:58.334Z,90.80
2023-03-03T09:28:27.931Z,90.23
2023-03-03T09:30:58.571Z,90.54
2023-03-03T09:33:30.440Z,90.01
2023-03-03T09:36:05.000Z,89.32
2023-03-03T09:38:35.446Z,87.99
2023-03-03T09:41:28.521Z,87.88
2023-03-03T09:44:18.533Z,89.16
2023-03-03T09:47:00.354Z,89.68
2023-03-03T09:49:33.375Z,88.13
2023-03-03T09:52:13.306Z,87.77
2023-03-03T09:54:55.566Z,86.62
2023-03-03T09:57:30.445Z,84.78
2023-03-03T10:00:18.944Z,86.49
2023-03-03T10:02:56.786Z,85.05
2023-03-03T10:05:36.244Z,84.96
2023-03-03T10:08:36.137Z,84.91
2023-03-03T10:11:17.080Z,85.05
2023-03-03T10:14:02.062Z,83.79
2023-03-03T10:16:45.814Z,83.51
2023-03-03T10:19:29.084Z,82.99
2023-03-03T10:22:08.475Z,83.19
2023-03-03T10:24:48.849Z,81.26
2023-03-03T10:27:34.938Z,80.95
2023-03-03T10:30:11.842Z,80.12
2023-03-03T10:32:52.874Z,80.71
2023-03-03T10:36:07.361Z,80.23
2023-03-03T10:39:03.751Z,77.19
2023-03-03T10:41:44.734Z,80.22
2023-03-03T10:44:34.907Z,79.02
2023-03-03T10:47:22.585Z,78.77
2023-03-03T10:50:02.555Z,78.02
2023-03-03T10:52:39.293Z,77.95
2023-03-03T10:55:31.748Z,78.74
2023-03-03T10:58:19.610Z,78.20
2023-03-03T11:00:54.974Z,77.15
2023-03-03T11:04:04.726Z,76.37
2023-03-03T11:06:44.647Z,77.08
2023-03-03T11:09:31.825Z,77.75
2023-03-03T11:12:11.879Z,77.12
2023-03-03T11:14:49.275Z,75.24
2023-03-03T11:17:24.731Z,75.79
2023-03-03T11:20:03.441Z,74.89
2023-03-03T11:22:43.997Z,75.08
2023-03-03T11:25:28.138Z,74.78
2023-03-03T11:28:27.758Z,74.55
2023-03-03T11:31:11.359Z,74.75
2023-03-03T11:33:51.930Z,74.15
2023-03-03T11:36:24.285Z,74.53
2023-03-03T11:38:59.776Z,74.70
2023-03-03T11:41:38.788Z,74.90
2023-03-03T11:44:18.383Z,73.71
2023-03-03T11:46:49.816Z,74.72
2023-03-03T11:49:25.867Z,72.82
2023-03-03T11:52:07.973Z,72.72
2023-03-03T11:54:52.267Z,72.46
2023-03-03T11:57:24.935Z,72.91
2023-03-03T12:00:04.868Z,72.14
2023-03-03T12:02:55.848Z,69.94
2023-03-03T12:05:39.576Z,71.03
2023-03-03T12:08:19.369Z,70.76
2023-03-03T12:10:53.998Z,69.45
2023-03-03T12:13:28.244Z,67.70
2023-03-03T12:16:06.466Z,68.01
2023-03-03T12:18:54.690Z,67.72
2023-03-03T12:21:41.855Z,67.38
2023-03-03T12:24:26.611Z,66.09
2023-03-03T12:27:08.003Z,67.25
2023-03-03T12:29:47.417Z,66.04
2023-03-03T12:32:29.012Z,63.46
2023-03-03T12:35:03.176Z,64.17
2023-03-03T12:37:48.414Z,63.56
2023-03-03T12:40:20.893Z,62.53
2023-03-03T12:43:05.785Z,63.40
2023-03-03T12:45:45.097Z,62.85
2023-03-03T12:48:18.772Z,62.45
2023-03-03T12:51:00.365Z,61.98
2023-03-03T12:53:52.838Z,63.49
2023-03-03T12:56:34.053Z,62.29
2023-03-03T12:59:05.768Z,62.71
2023-03-03T13:01:44.724Z,63.65
2023-03-03T13:04:27.503Z,62.98
2023-03-03T13:07:02.059Z,62.85
2023-03-03T13:09:41.507Z,62.85
2023-03-03T13:12:22.625Z,62.63
2023-03-03T13:14:54.455Z,61.27
2023-03-03T13:17:28.927Z,60.38
2023-03-03T13:20:01.250Z,59.56
2023-03-03T13:22:39.841Z,58.91
2023-03-03T13:25:18.419Z,59.56
2023-03-03T13:27:50.224Z,58.79
2023-03-03T13:30:23.291Z,59.92
2023-03-03T13:32:56.287Z,59.37
2023-03-03T13:35:34.663Z,59.89
2023-03-03T13:38:05.773Z,58.34
2023-03-03T13:40:44.328Z,59.83
2023-03-03T13:43:19.182Z,59.01
2023-03-03T13:46:05.645Z,59.22
2023-03-03T13:48:58.932Z,57.92
2023-03-03T13:51:38.287Z,59.60
2023-03-03T13:54:16.651Z,58.23
2023-03-03T13:57:05.258Z,60.00
2023-03-03T13:59:43.144Z,59.47
2023-03-03T14:02:31.773Z,60.32
2023-03-03T14:05:04.599Z,60.00
2023-03-03T14:07:38.720Z,59.60
2023-03-03T14:10:13.112Z,58.08
2023-03-03T14:12:59.505Z,59.14
2023-03-03T14:15:41.287Z,58.69
2023-03-03T14:18:33.816Z,58.77
2023-03-03T14:21:08.890Z,58.08
2023-03-03T14:23:51.192Z,58.33
2023-03-03T14:26:19.099Z,56.39
2023-03-03T14:28:50.098Z,56.79
2023-03-03T14:31:23.146Z,58.51
2023-03-03T14:34:02.365Z,58.76
2023-03-03T14:36:34.560Z,59.49
2023-03-03T14:39:04.026Z,58.49
2023-03-03T14:41:41.841Z,57.61
2023-03-03T14:44:27.296Z,58.99
2023-03-03T14:47:23.516Z,60.41
2023-03-03T14:49:52.550Z,60.67
2023-03-03T14:52:25.186Z,59.87
2023-03-03T14:54:56.041Z,60.68
2023-03-03T14:57:41.621Z,61.18
2023-03-03T15:00:29.384Z,60.76
2023-03-03T15:03:06.624Z,60.03
2023-03-03T15:05:35.177Z,61.19
2023-03-03T15:08:10.970Z,60.52
2023-03-03T15:10:42.117Z,60.45
2023-03-03T15:13:29.407Z,60.40
2023-03-03T15:16:12.327Z,59.21
2023-03-03T15:19:07.107Z,58.74
2023-03-03T15:21:38.198Z,59.58
2023-03-03T15:24:11.405Z,60.17
2023-03-03T15:26:48.583Z,61.66
2023-03-03T15:29:21.557Z,60.83
2023-03-03T15:31:55.390Z,60.88
2023-03-03T15:34:33.881Z,61.44
2023-03-03T15:37:13.825Z,62.02
2023-03-03T15:39:51.453Z,59.74
2023-03-03T15:42:28.045Z,61.41
2023-03-03T15:45:03.736Z,62.15
2023-03-03T15:48:01.456Z,62.62
2023-03-03T15:50:53.906Z,63.10
2023-03-03T15:53:38.605Z,63.31
2023-03-03T15:56:20.691Z,63.84
2023-03-03T15:59:30.285Z,64.94
2023-03-03T16:02:10.215Z,63.33
2023-03-03T16:04:45.057Z,64.96
2023-03-03T16:07:26.024Z,64.94
2023-03-03T16:10:04.550Z,64.49
2023-03-03T16:13:00.395Z,65.92
2023-03-03T16:16:04.958Z,66.62
2023-03-03T16:18:58.594Z,66.37
2023-03-03T16:21:45.619Z,66.75
2023-03-03T16:24:35.044Z,66.95
2023-03-03T16:27:12.172Z,68.01
2023-03-03T16:29:59.957Z,68.18
2023-03-03T16:32:46.406Z,68.35
2023-03-03T16:38:34.424Z,69.74
2023-03-03T16:41:25.381Z,69.93
2023-03-03T16:44:09.720Z,70.66
2023-03-03T16:46:57.486Z,70.86
2023-03-03T16:49:39.908Z,70.36
2023-03-03T16:52:18.921Z,70.36
2023-03-03T16:54:59.239Z,70.66
2023-03-03T16:57:48.399Z,71.54
2023-03-03T17:00:45.568Z,71.55
2023-03-03T17:03:56.448Z,70.90
2023-03-03T17:06:46.091Z,71.16
2023-03-03T17:09:42.798Z,70.50
2023-03-03T17:12:45.635Z,70.62
2023-03-03T17:15:42.156Z,70.76
2023-03-03T17:18:19.902Z,71.88
2023-03-03T17:20:53.868Z,72.54
2023-03-03T17:23:36.483Z,72.32
2023-03-03T17:26:23.061Z,72.29
2023-03-03T17:29:05.256Z,73.68
2023-03-03T17:31:40.515Z,73.49
2023-03-03T17:34:20.936Z,73.55
2023-03-03T17:37:02.842Z,73.80
2023-03-03T17:39:58.692Z,74.77
2023-03-03T17:42:35.369Z,74.65
2023-03-03T17:45:07.316Z,74.75
2023-03-03T17:47:47.672Z,75.55
2023-03-03T17:51:03.050Z,74.51
2023-03-03T17:54:16.438Z,74.64
2023-03-03T17:56:54.568Z,75.21
2023-03-03T17:59:48.999Z,75.36
2023-03-03T18:02:38.123Z,74.73
2023-03-03T18:05:41.888Z,75.66
2023-03-03T18:08:27.100Z,76.12
2023-03-03T18:11:25.540Z,77.02
2023-03-03T18:14:20.131Z,77.02
2023-03-03T18:17:19.346Z,77.78
2023-03-03T18:20:15.586Z,77.78
2023-03-03T18:22:47.300Z,77.78
2023-03-03T18:25:28.765Z,79.04
2023-03-03T18:28:29.273Z,77.99
2023-03-03T18:31:37.098Z,77.06
2023-03-03T18:34:41.959Z,77.34
2023-03-03T18:37:43.936Z,78.14
2023-03-03T18:40:56.242Z,77.89
2023-03-03T18:44:05.547Z,78.24
2023-03-03T18:46:49.844Z,78.52
2023-03-03T18:49:21.936Z,79.19
2023-03-03T18:52:19.166Z,79.74
2023-03-03T18:55:17.278Z,80.18
2023-03-03T18:58:19.962Z,80.17
2023-03-03T19:00:54.324Z,79.52
2023-03-03T19:03:33.366Z,80.13
2023-03-03T19:06:06.169Z,80.81
2023-03-03T19:08:53.888Z,81.97
2023-03-03T19:11:38.551Z,82.32
2023-03-03T19:14:34.163Z,83.01
2023-03-03T19:17:57.456Z,84.37
2023-03-03T19:20:40.657Z,85.12
2023-03-03T19:23:16.585Z,85.72
2023-03-03T19:25:46.929Z,85.24
2023-03-03T19:28:43.163Z,85.69
2023-03-03T19:31:22.495Z,85.67
2023-03-03T19:33:57.040Z,85.96
2023-03-03T19:36:46.997Z,86.14
2023-03-03T19:39:52.162Z,86.65
2023-03-03T19:42:31.396Z,87.10
2023-03-03T19:45:19.303Z,86.99
2023-03-03T19:47:53.255Z,88.17
2023-03-03T19:50:34.442Z,88.86
2023-03-03T19:53:14.858Z,89.09
2023-03-03T19:56:00.850Z,88.71
2023-03-03T19:58:43.342Z,90.49
2023-03-03T20:01:23.584Z,90.22
2023-03-03T20:04:18.328Z,90.20
2023-03-03T20:07:04.956Z,91.45
2023-03-03T20:21:56.228Z,93.34
2023-03-03T20:24:46.124Z,93.03
2023-03-03T20:27:21.202Z,92.87
2023-03-03T20:30:08.292Z,91.95
2023-03-03T20:33:01.036Z,91.73
2023-03-03T20:35:43.181Z,93.51
2023-03-03T20:38:25.144Z,93.13
2023-03-03T20:41:06.431Z,93.95
2023-03-03T20:43:47.069Z,94.27
2023-03-03T20:46:25.394Z,94.65
2023-03-03T20:49:29.483Z,95.30
2023-03-03T20:52:03.749Z,96.37
2023-03-03T20:54:44.813Z,95.94
2023-03-03T20:57:36.333Z,95.71
2023-03-03T21:00:23.343Z,94.98
2023-03-03T21:03:28.339Z,96.09
2023-03-03T21:18:21.992Z,95.94
2023-03-03T21:20:49.693Z,96.92
2023-03-03T21:23:17.487Z,96.96
2023-03-03T21:25:53.434Z,98.35
2023-03-03T21:28:24.670Z,98.68
2023-03-03T21:31:08.309Z,98.85
2023-03-03T21:33:49.059Z,98.35
2023-03-03T21:36:18.548Z,99.17
2023-03-03T21:38:47.497Z,99.58
2023-03-03T21:41:17.445Z,99.25
2023-03-03T21:43:47.403Z,99.10
2023-03-03T21:46:19.499Z,99.43
2023-03-03T21:48:48.938Z,99.66
2023-03-03T21:51:16.997Z,99.58
2023-03-03T21:53:45.890Z,99.63
2023-03-03T21:56:15.074Z,100.00
2023-03-03T21:58:43.341Z,100.00
2023-03-03T22:01:12.399Z,99.90
2023-03-03T22:03:40.521Z,100.00
2023-03-03T22:06:09.586Z,99.55
2023-03-03T22:08:37.353Z,100.00
2023-03-03T22:11:05.643Z,100.00
2023-03-03T22:13:33.509Z,100.00
2023-03-03T22:16:01.587Z,100.00
2023-03-03T22:18:29.544Z,100.00
2023-03-03T22:20:57.405Z,100.00
2023-03-03T22:23:26.897Z,100.00
2023-03-03T22:25:55.603Z,100.00
2023-03-03T22:28:23.345Z,100.00
2023-03-03T22:30:51.078Z,100.00
2023-03-03T22:33:18.959Z,100.00
2023-03-03T22:35:46.782Z,100.00
2023-03-03T22:38:15.549Z,100.00
2023-03-03T22:40:44.918Z,100.00
2023-03-03T22:43:14.531Z,100.00
2023-03-03T22:45:42.582Z,100.00
2023-03-03T22:48:10.328Z,100.00
2023-03-03T22:50:42.618Z,100.00
2023-03-03T22:53:10.804Z,100.00
2023-03-03T22:55:39.163Z,100.00
2023-03-03T22:58:09.621Z,100.00
2023-03-03T23:00:38.304Z,100.00
2023-03-03T23:03:06.661Z,100.00
2023-03-03T23:05:36.133Z,100.00
2023-03-03T23:08:06.187Z,100.00
2023-03-03T23:10:35.762Z,100.00
2023-03-03T23:13:06.877Z,100.00
2023-03-03T23:15:38.189Z,100.00
2023-03-03T23:18:07.226Z,100.00
2023-03-03T23:20:38.069Z,100.00
2023-03-03T23:23:06.365Z,100.00
2023-03-03T23:25:34.473Z,100.00
2023-03-03T23:28:02.224Z,100.00
2023-03-03T23:30:30.193Z,100.00
2023-03-03T23:32:59.206Z,100.00
2023-03-03T23:35:27.105Z,100.00
2023-03-03T23:37:55.742Z,100.00
2023-03-03T23:40:23.524Z,100.00
2023-03-03T23:42:51.560Z,100.00
2023-03-03T23:45:19.438Z,100.00
2023-03-03T23:47:47.222Z,100.00
2023-03-03T23:50:16.208Z,100.00
2023-03-03T23:52:43.959Z,100.00
2023-03-03T23:55:12.223Z,100.00
2023-03-03T23:57:40.079Z,100.00
